Arnold, Maryland
Current Conditions -  °F | °C
As of 8:54 AM on Thursday 30 Oct 2014 (Local Time) from KNAK Reporting Station
Overcast Overcast  
Wind Chill: 11°   Ceiling: 7000
Heat Index: 11°   Visibility: 10mi
Dew Point:   Wind: 9mph
Humidity: 66%   Direction: 310°NW
Pressure: 30.05"   Gusts: NA
Location:  39.03°N, 76.51°W
Report Text: KNAK 301254Z AUTO 31008KT 10SM OVC070 11/05 A3005 RMK AO2 SLP177 T01110050
Loading
Personal Weather Stations






























Interactive Weather Map
Tropical Storm Tracking
New forecast layout! Learn more

10-Day Weather Forecast

Advertisements
Track Severe Weather on mobile